Time;durP1;ratioP1;P1;durP2;ratioP2;P2;SDS_P1;SDS_P2;PMS_P1;PMS_P2;Temp;Humidity;BMP_temperature;BMP_pressure;BME280_temperature;BME280_humidity;BME280_pressure;Samples;Min_cycle;Max_cycle;Signal;HPM_P1;HPM_P2
2021/06/24 00:00:53;;;;;;;8.95;3.88;;;18.10;99.90;;;;;;5034411;28;20031;-76
2021/06/24 00:03:19;;;;;;;14.10;4.75;;;18.30;99.90;;;;;;5028363;28;20188;-75
2021/06/24 00:05:46;;;;;;;10.70;3.83;;;18.20;99.90;;;;;;5032660;28;20067;-76
2021/06/24 00:08:13;;;;;;;10.43;3.83;;;18.20;99.90;;;;;;5015053;28;20040;-76
2021/06/24 00:10:41;;;;;;;7.90;3.45;;;18.20;99.90;;;;;;5013236;28;20096;-76
2021/06/24 00:13:08;;;;;;;10.00;3.95;;;17.90;99.90;;;;;;5022916;28;20033;-76
2021/06/24 00:15:35;;;;;;;8.70;3.45;;;17.70;99.90;;;;;;5022424;28;20040;-76
2021/06/24 00:18:01;;;;;;;6.10;3.40;;;17.80;99.90;;;;;;5012987;28;20032;-75
2021/06/24 00:20:27;;;;;;;8.88;3.50;;;17.70;99.90;;;;;;5012804;28;20030;-76
2021/06/24 00:22:53;;;;;;;10.20;3.65;;;17.70;99.90;;;;;;5012997;28;20084;-74
2021/06/24 00:25:18;;;;;;;8.88;4.05;;;17.80;99.90;;;;;;5013252;28;20030;-76
2021/06/24 00:27:45;;;;;;;9.57;3.67;;;17.70;99.90;;;;;;5014983;28;20081;-76
2021/06/24 00:30:12;;;;;;;10.70;3.78;;;17.90;99.90;;;;;;5020729;28;20029;-76
2021/06/24 00:32:38;;;;;;;7.90;3.38;;;17.90;99.90;;;;;;5025697;28;20025;-76
2021/06/24 00:35:05;;;;;;;11.55;3.70;;;17.80;99.90;;;;;;5012937;28;20054;-76
2021/06/24 00:37:31;;;;;;;9.20;3.60;;;17.80;99.90;;;;;;5012734;28;20034;-76
2021/06/24 00:39:57;;;;;;;10.35;3.80;;;17.90;99.90;;;;;;5012802;28;20034;-76
2021/06/24 00:42:26;;;;;;;9.85;4.53;;;18.00;99.90;;;;;;5021828;28;20116;-76
2021/06/24 00:44:52;;;;;;;10.80;3.67;;;18.10;99.90;;;;;;5020070;28;20026;-76
2021/06/24 00:47:18;;;;;;;12.43;4.20;;;18.40;99.90;;;;;;5024750;28;20021;-76
2021/06/24 00:49:44;;;;;;;10.52;4.03;;;18.60;99.90;;;;;;5013215;28;20045;-76
2021/06/24 00:52:10;;;;;;;9.32;4.28;;;18.60;99.90;;;;;;5012574;28;20026;-76
2021/06/24 00:54:36;;;;;;;6.40;3.78;;;18.60;99.90;;;;;;5012604;28;20396;-76
2021/06/24 00:57:02;;;;;;;13.77;4.38;;;18.60;99.90;;;;;;5012760;28;20480;-75
2021/06/24 00:59:28;;;;;;;8.35;4.03;;;18.60;99.90;;;;;;5016702;28;20037;-75
2021/06/24 01:01:53;;;;;;;10.45;4.03;;;18.20;99.90;;;;;;5030111;28;20037;-76
2021/06/24 01:04:22;;;;;;;9.23;3.95;;;17.90;99.90;;;;;;5018258;28;20373;-75
2021/06/24 01:06:52;;;;;;;10.52;4.03;;;17.80;99.90;;;;;;5011111;28;20395;-76
2021/06/24 01:09:18;;;;;;;12.98;3.75;;;17.70;99.90;;;;;;5012188;28;20435;-76
2021/06/24 01:11:45;;;;;;;8.27;3.65;;;17.60;99.90;;;;;;5017033;28;20051;-75
2021/06/24 01:14:11;;;;;;;8.35;3.90;;;17.50;99.90;;;;;;5028614;28;20503;-76
2021/06/24 01:16:38;;;;;;;12.20;3.45;;;17.70;99.90;;;;;;5039542;28;20021;-76
2021/06/24 01:19:05;;;;;;;18.80;4.15;;;17.80;99.90;;;;;;5013664;28;20038;-75
2021/06/24 01:21:31;;;;;;;7.15;3.33;;;17.80;99.90;;;;;;5016533;28;20069;-76
2021/06/24 01:23:57;;;;;;;12.27;3.95;;;17.90;99.90;;;;;;5029752;28;20072;-75
2021/06/24 01:26:23;;;;;;;9.90;4.03;;;17.90;99.90;;;;;;5022265;28;20032;-74
2021/06/24 01:28:49;;;;;;;10.55;4.55;;;18.00;99.90;;;;;;5013177;28;20022;-75
2021/06/24 01:31:17;;;;;;;7.68;3.45;;;18.10;99.90;;;;;;5010951;28;20033;-75
2021/06/24 01:33:43;;;;;;;16.17;4.72;;;18.10;99.90;;;;;;5022624;28;20034;-75
2021/06/24 01:36:09;;;;;;;9.35;4.03;;;18.10;99.90;;;;;;5011309;28;20539;-75
2021/06/24 01:38:36;;;;;;;9.38;3.58;;;18.00;99.90;;;;;;5024949;28;20044;-75
2021/06/24 01:41:03;;;;;;;14.27;3.95;;;17.80;99.90;;;;;;5025987;28;20034;-76
2021/06/24 01:43:29;;;;;;;11.38;3.83;;;17.70;99.90;;;;;;5018642;28;20033;-76
2021/06/24 01:45:57;;;;;;;7.47;3.40;;;17.70;99.90;;;;;;5026570;28;20017;-76
2021/06/24 01:48:24;;;;;;;11.55;3.83;;;17.60;99.90;;;;;;5038131;28;20026;-75
2021/06/24 01:50:53;;;;;;;9.65;5.03;;;17.40;99.90;;;;;;5024095;28;20492;-75
2021/06/24 01:53:18;;;;;;;8.88;3.70;;;17.50;99.90;;;;;;5017979;28;20037;-75
2021/06/24 01:55:44;;;;;;;9.05;4.07;;;17.50;99.90;;;;;;5034211;28;20029;-75
2021/06/24 01:58:15;;;;;;;10.98;3.80;;;17.50;99.90;;;;;;5037995;28;20025;-75
2021/06/24 02:00:44;;;;;;;8.70;3.95;;;17.60;99.90;;;;;;5026155;28;20502;-76
2021/06/24 02:03:11;;;;;;;9.02;3.47;;;17.60;99.90;;;;;;5028441;28;20030;-75
2021/06/24 02:05:37;;;;;;;10.07;3.60;;;17.70;99.90;;;;;;5024453;28;20037;-75
2021/06/24 02:08:03;;;;;;;9.27;4.28;;;17.70;99.90;;;;;;5037937;28;20407;-76
2021/06/24 02:10:29;;;;;;;8.65;3.85;;;17.70;99.90;;;;;;5020512;28;20357;-76
2021/06/24 02:12:56;;;;;;;11.13;3.95;;;17.70;99.90;;;;;;5035116;28;20052;-76
2021/06/24 02:15:21;;;;;;;12.57;4.05;;;17.70;99.90;;;;;;5023883;28;20034;-75
2021/06/24 02:17:47;;;;;;;11.48;4.05;;;17.40;99.90;;;;;;5034060;28;20025;-75
2021/06/24 02:20:15;;;;;;;8.57;3.53;;;17.20;99.90;;;;;;5033131;28;20091;-76
2021/06/24 02:22:42;;;;;;;14.02;4.07;;;17.10;99.90;;;;;;5033770;28;20020;-76
2021/06/24 02:25:09;;;;;;;10.50;4.10;;;17.00;99.90;;;;;;5026598;28;20028;-75
2021/06/24 02:27:35;;;;;;;7.78;3.80;;;17.20;99.90;;;;;;5036133;28;20029;-75
2021/06/24 02:30:01;;;;;;;9.73;4.03;;;17.40;99.90;;;;;;5018664;28;20029;-75
2021/06/24 02:32:27;;;;;;;8.57;4.10;;;17.40;99.90;;;;;;5018057;28;20022;-75
2021/06/24 02:34:53;;;;;;;13.68;4.97;;;17.40;99.90;;;;;;5028344;28;20099;-75
2021/06/24 02:37:19;;;;;;;9.98;3.70;;;17.50;99.90;;;;;;5032723;28;20033;-76
2021/06/24 02:39:44;;;;;;;13.77;4.43;;;17.40;99.90;;;;;;5037995;28;20034;-76
2021/06/24 02:42:10;;;;;;;9.95;4.28;;;17.40;99.90;;;;;;5023782;28;20032;-76
2021/06/24 02:44:36;;;;;;;6.80;3.67;;;17.30;99.90;;;;;;5029179;28;20025;-75
2021/06/24 02:47:02;;;;;;;9.50;4.00;;;17.40;99.90;;;;;;5036478;28;20029;-75
2021/06/24 02:49:28;;;;;;;10.60;3.95;;;17.30;99.90;;;;;;5027859;28;20357;-75
2021/06/24 02:51:54;;;;;;;7.40;3.65;;;17.30;99.90;;;;;;5017768;28;20045;-76
2021/06/24 02:54:20;;;;;;;9.32;4.05;;;17.20;99.90;;;;;;5016727;28;20551;-75
2021/06/24 02:56:46;;;;;;;10.77;3.88;;;16.90;99.90;;;;;;5034031;28;20083;-76
2021/06/24 02:59:12;;;;;;;14.43;4.35;;;16.80;99.90;;;;;;5024775;28;20468;-76
2021/06/24 03:01:39;;;;;;;8.60;3.92;;;17.10;99.90;;;;;;5013763;28;20080;-76
2021/06/24 03:04:08;;;;;;;12.68;4.93;;;17.20;99.90;;;;;;5007560;28;20049;-75
2021/06/24 03:06:35;;;;;;;11.98;4.38;;;17.40;99.90;;;;;;5007341;28;20032;-76
2021/06/24 03:09:05;;;;;;;9.05;3.45;;;17.40;99.90;;;;;;5007232;28;20022;-76
2021/06/24 03:11:31;;;;;;;9.48;4.25;;;17.30;99.90;;;;;;5007199;28;20026;-76
2021/06/24 03:13:57;;;;;;;9.98;4.03;;;17.50;99.90;;;;;;5007216;28;20034;-74
2021/06/24 03:16:22;;;;;;;11.77;4.53;;;17.60;99.90;;;;;;5024101;28;20040;-76
2021/06/24 03:18:49;;;;;;;13.27;3.72;;;17.50;99.90;;;;;;5007710;28;20034;-76
2021/06/24 03:21:19;;;;;;;11.07;4.20;;;17.50;99.90;;;;;;5023378;28;20080;-76
2021/06/24 03:23:45;;;;;;;10.75;4.15;;;17.20;99.90;;;;;;5024215;28;20033;-76
2021/06/24 03:26:11;;;;;;;7.68;3.90;;;16.80;99.90;;;;;;5026271;28;20092;-75
2021/06/24 03:28:37;;;;;;;13.20;4.13;;;16.70;99.90;;;;;;5006792;28;20029;-76
2021/06/24 03:31:04;;;;;;;11.88;4.68;;;16.60;99.90;;;;;;5006827;28;20022;-76
2021/06/24 03:33:29;;;;;;;12.57;3.65;;;16.50;99.90;;;;;;5010897;28;20025;-75
2021/06/24 03:35:55;;;;;;;9.85;3.85;;;16.60;99.90;;;;;;5008648;28;20045;-75
2021/06/24 03:38:21;;;;;;;11.23;4.15;;;16.70;99.90;;;;;;5025613;28;20087;-75
2021/06/24 03:40:47;;;;;;;10.70;4.15;;;16.80;99.90;;;;;;5007800;28;20596;-76
2021/06/24 03:43:13;;;;;;;6.53;3.20;;;16.80;99.90;;;;;;5006816;28;20109;-75
2021/06/24 03:45:39;;;;;;;10.40;4.10;;;16.90;99.90;;;;;;5009668;28;20234;-75
2021/06/24 03:48:06;;;;;;;10.10;4.80;;;17.10;99.90;;;;;;5026341;28;20068;-75
2021/06/24 03:50:33;;;;;;;10.70;3.88;;;17.00;99.90;;;;;;5006783;28;20087;-75
2021/06/24 03:52:59;;;;;;;8.65;3.60;;;17.00;99.90;;;;;;5008943;28;20040;-75
2021/06/24 03:58:10;;;;;;;10.02;3.88;;;16.80;99.90;;;;;;5024954;28;20053;-76
2021/06/24 04:00:40;;;;;;;14.38;4.50;;;16.70;99.90;;;;;;5022185;28;20037;-75
2021/06/24 04:03:06;;;;;;;10.52;4.18;;;16.70;99.90;;;;;;5022902;28;20427;-76
2021/06/24 04:05:32;;;;;;;10.82;3.75;;;16.70;99.90;;;;;;5024860;28;20021;-75
2021/06/24 04:08:00;;;;;;;9.98;4.25;;;16.70;99.90;;;;;;5007162;28;20089;-76
2021/06/24 04:10:27;;;;;;;9.77;3.70;;;16.70;99.90;;;;;;5005434;28;20026;-75
2021/06/24 04:12:54;;;;;;;9.18;4.13;;;16.70;99.90;;;;;;5005471;28;20559;-76
2021/06/24 04:15:23;;;;;;;9.32;3.38;;;16.70;99.90;;;;;;5022866;28;20124;-75
2021/06/24 04:17:49;;;;;;;9.90;4.07;;;16.70;99.90;;;;;;5010408;28;21665;-76
2021/06/24 04:20:15;;;;;;;10.02;3.40;;;16.80;99.90;;;;;;5005614;28;20061;-76
2021/06/24 04:22:41;;;;;;;8.68;3.40;;;16.80;99.90;;;;;;5005657;28;20088;-76
2021/06/24 04:25:08;;;;;;;9.93;4.05;;;17.00;99.90;;;;;;5018180;28;20025;-75
2021/06/24 04:27:34;;;;;;;7.28;3.50;;;17.20;99.90;;;;;;5008426;28;20117;-76
2021/06/24 04:30:00;;;;;;;8.45;4.18;;;17.10;99.90;;;;;;5005082;28;20113;-75
2021/06/24 04:32:26;;;;;;;9.32;3.70;;;17.00;99.90;;;;;;5016768;28;20044;-75
2021/06/24 04:34:51;;;;;;;9.20;3.50;;;17.00;99.90;;;;;;5011029;28;20499;-76
2021/06/24 04:37:17;;;;;;;4.85;3.30;;;16.90;99.90;;;;;;5005860;28;20416;-76
2021/06/24 04:39:43;;;;;;;9.63;3.90;;;17.00;99.90;;;;;;5005461;28;20030;-75
2021/06/24 04:42:08;;;;;;;10.55;3.85;;;16.90;99.90;;;;;;5022515;28;20349;-75
2021/06/24 04:44:36;;;;;;;9.25;3.78;;;16.80;99.90;;;;;;5004814;28;20037;-75
2021/06/24 04:47:03;;;;;;;9.52;3.80;;;16.70;99.90;;;;;;5005767;28;20149;-75
2021/06/24 04:49:28;;;;;;;9.00;3.53;;;16.80;99.90;;;;;;5024081;28;20443;-76
2021/06/24 04:51:54;;;;;;;10.02;3.85;;;16.70;99.90;;;;;;5022685;28;20025;-75
2021/06/24 04:54:20;;;;;;;10.85;4.20;;;16.50;99.90;;;;;;5018925;28;20101;-75
2021/06/24 04:56:45;;;;;;;8.80;3.35;;;16.70;99.90;;;;;;5006322;28;20030;-75
2021/06/24 04:59:11;;;;;;;9.93;5.63;;;16.70;99.90;;;;;;5017170;28;20033;-75
2021/06/24 05:01:37;;;;;;;9.85;4.97;;;16.90;99.90;;;;;;5012118;28;20038;-76
2021/06/24 05:04:03;;;;;;;8.00;3.75;;;17.10;99.90;;;;;;5011699;28;20033;-75
2021/06/24 05:06:28;;;;;;;7.22;3.80;;;17.20;99.90;;;;;;5009592;28;20026;-76
2021/06/24 05:08:54;;;;;;;9.25;4.10;;;17.10;99.90;;;;;;5004875;28;20087;-75
2021/06/24 05:11:20;;;;;;;10.48;4.05;;;17.20;99.90;;;;;;5005142;28;20041;-75
2021/06/24 05:13:46;;;;;;;11.02;4.75;;;17.30;99.90;;;;;;5005166;28;20037;-76
2021/06/24 05:16:12;;;;;;;12.65;3.97;;;17.30;99.90;;;;;;5004337;28;20523;-75
2021/06/24 05:18:38;;;;;;;10.88;3.83;;;17.20;99.90;;;;;;5008612;28;20097;-76
2021/06/24 05:21:04;;;;;;;9.05;4.22;;;17.20;99.90;;;;;;5009229;28;20195;-76
2021/06/24 05:23:30;;;;;;;9.73;4.20;;;17.30;99.90;;;;;;5018391;28;20636;-75
2021/06/24 05:25:56;;;;;;;6.55;4.18;;;17.30;99.90;;;;;;5010016;28;20018;-75
2021/06/24 05:28:22;;;;;;;12.02;4.38;;;17.60;99.90;;;;;;5027045;28;20408;-74
2021/06/24 05:30:48;;;;;;;9.35;4.03;;;17.50;99.90;;;;;;5018586;28;20026;-76
2021/06/24 05:33:15;;;;;;;10.82;4.68;;;17.40;99.90;;;;;;5010630;28;20044;-74
2021/06/24 05:35:42;;;;;;;8.77;3.45;;;17.30;99.90;;;;;;5015857;28;20090;-75
2021/06/24 05:38:11;;;;;;;9.70;3.88;;;17.30;99.90;;;;;;5023683;28;20037;-74
2021/06/24 05:40:37;;;;;;;8.43;3.72;;;17.50;99.90;;;;;;5023645;28;21052;-74
2021/06/24 05:43:04;;;;;;;9.85;3.88;;;17.60;99.90;;;;;;5015988;28;20018;-74
2021/06/24 05:45:30;;;;;;;7.32;3.83;;;17.70;99.90;;;;;;5004127;28;20034;-74
2021/06/24 05:47:57;;;;;;;12.15;4.03;;;17.80;99.90;;;;;;5003865;28;20101;-74
2021/06/24 05:50:24;;;;;;;9.00;3.90;;;18.10;99.90;;;;;;5003493;28;20022;-74
2021/06/24 05:52:49;;;;;;;11.02;3.90;;;18.20;99.90;;;;;;5007988;28;20025;-74
2021/06/24 05:55:16;;;;;;;16.15;4.68;;;18.40;99.90;;;;;;5003577;28;20026;-74
2021/06/24 05:57:41;;;;;;;10.93;3.50;;;18.50;99.90;;;;;;5003784;28;20030;-74
2021/06/24 06:00:08;;;;;;;11.05;4.43;;;18.40;99.90;;;;;;5003669;28;20038;-74
2021/06/24 06:02:33;;;;;;;10.60;3.85;;;18.40;99.90;;;;;;5003579;28;20093;-74
2021/06/24 06:04:59;;;;;;;14.88;4.32;;;18.50;99.90;;;;;;5003260;28;20057;-74
2021/06/24 06:07:25;;;;;;;9.90;5.10;;;18.60;99.90;;;;;;5003702;28;20039;-75
2021/06/24 06:09:50;;;;;;;11.80;5.55;;;18.70;99.90;;;;;;5011783;28;20037;-75
2021/06/24 06:12:16;;;;;;;14.75;5.22;;;18.80;99.90;;;;;;5023563;28;20021;-74
2021/06/24 06:14:42;;;;;;;13.38;4.97;;;18.90;99.90;;;;;;5022409;28;20176;-76
2021/06/24 06:17:07;;;;;;;12.95;4.90;;;18.90;99.90;;;;;;5024179;28;20056;-78
2021/06/24 06:19:33;;;;;;;11.15;4.13;;;18.90;99.90;;;;;;5018686;28;20053;-76
2021/06/24 06:21:59;;;;;;;15.90;5.25;;;18.90;99.90;;;;;;5003966;28;20025;-76
2021/06/24 06:24:25;;;;;;;10.77;4.25;;;19.00;99.90;;;;;;5004293;28;20029;-76
2021/06/24 06:26:50;;;;;;;14.05;4.72;;;19.10;99.90;;;;;;5002853;28;20037;-80
2021/06/24 06:29:16;;;;;;;9.55;4.47;;;19.20;99.90;;;;;;5006311;28;20032;-75
2021/06/24 06:31:42;;;;;;;10.05;3.70;;;19.20;99.90;;;;;;5017863;28;20111;-76
2021/06/24 06:34:08;;;;;;;8.30;4.05;;;19.20;99.90;;;;;;5027369;28;20063;-76
2021/06/24 06:36:34;;;;;;;9.98;4.65;;;19.20;99.90;;;;;;5027126;28;20049;-76
2021/06/24 06:39:00;;;;;;;9.85;3.78;;;19.30;99.90;;;;;;5027508;28;20025;-76
2021/06/24 06:41:26;;;;;;;10.27;4.10;;;19.30;99.90;;;;;;5014757;28;20052;-77
2021/06/24 06:43:52;;;;;;;10.90;3.92;;;19.40;99.90;;;;;;5016739;28;20059;-77
2021/06/24 06:46:18;;;;;;;9.93;4.30;;;19.40;99.90;;;;;;5027351;28;20030;-76
2021/06/24 06:48:45;;;;;;;12.55;3.80;;;19.50;99.90;;;;;;5026218;28;20045;-79
2021/06/24 06:51:11;;;;;;;8.05;3.70;;;19.60;99.90;;;;;;5027861;28;20376;-76
2021/06/24 06:53:37;;;;;;;8.05;3.63;;;19.60;99.90;;;;;;5010872;28;20037;-76
2021/06/24 06:56:03;;;;;;;7.40;3.85;;;19.70;99.90;;;;;;5007489;28;20137;-76
2021/06/24 06:58:29;;;;;;;9.57;3.50;;;19.80;99.90;;;;;;5014702;28;20115;-76
2021/06/24 07:00:55;;;;;;;7.68;3.78;;;19.90;99.90;;;;;;5020426;28;20044;-76
2021/06/24 07:03:20;;;;;;;10.85;3.58;;;20.10;99.90;;;;;;5016475;28;20488;-76
2021/06/24 07:05:46;;;;;;;11.18;3.70;;;20.30;99.90;;;;;;5008002;28;20022;-76
2021/06/24 07:08:12;;;;;;;9.80;4.22;;;20.50;99.90;;;;;;5007701;28;20087;-79
2021/06/24 07:10:38;;;;;;;11.77;4.55;;;20.80;99.90;;;;;;5008054;28;20112;-76
2021/06/24 07:13:04;;;;;;;16.20;4.05;;;21.00;99.90;;;;;;5007385;28;20180;-76
2021/06/24 07:15:30;;;;;;;11.45;4.68;;;21.30;99.90;;;;;;5007447;28;20441;-76
2021/06/24 07:17:56;;;;;;;12.30;4.40;;;21.20;99.90;;;;;;5012789;28;20539;-75
2021/06/24 07:20:21;;;;;;;10.93;3.47;;;21.50;99.90;;;;;;5016325;28;20487;-77
2021/06/24 07:22:47;;;;;;;9.48;3.25;;;21.70;99.90;;;;;;5026723;28;20125;-76
2021/06/24 07:25:15;;;;;;;6.15;3.05;;;21.90;99.90;;;;;;5006697;28;20476;-76
2021/06/24 07:27:51;;;;;;;11.43;3.78;;;22.00;99.90;;;;;;5007774;28;20022;-76
2021/06/24 07:30:17;;;;;;;10.73;3.30;;;22.20;99.90;;;;;;5006939;28;20022;-75
2021/06/24 07:32:43;;;;;;;7.93;3.90;;;22.60;99.90;;;;;;5005768;28;20026;-75
2021/06/24 07:35:10;;;;;;;9.02;3.58;;;22.50;99.90;;;;;;5011927;28;20107;-75
2021/06/24 07:37:36;;;;;;;8.80;3.45;;;23.30;99.90;;;;;;5010619;28;20087;-75
2021/06/24 07:40:04;;;;;;;7.95;3.47;;;24.10;99.40;;;;;;5007889;28;20619;-75
2021/06/24 07:42:30;;;;;;;12.20;4.10;;;24.50;97.30;;;;;;5006511;28;20477;-78
2021/06/24 07:44:55;;;;;;;9.68;3.88;;;24.80;96.00;;;;;;5007078;28;20022;-75
2021/06/24 07:47:21;;;;;;;8.27;2.83;;;24.70;96.90;;;;;;5006853;28;20602;-75
2021/06/24 07:49:47;;;;;;;8.50;3.70;;;24.90;96.90;;;;;;5007055;28;20026;-76
2021/06/24 07:52:13;;;;;;;8.38;3.58;;;25.00;96.30;;;;;;5006376;28;20052;-76
2021/06/24 07:54:39;;;;;;;11.73;3.45;;;24.90;96.10;;;;;;5006894;28;20488;-75
2021/06/24 07:57:05;;;;;;;6.90;3.00;;;24.60;95.40;;;;;;5006489;28;20033;-74
2021/06/24 07:59:30;;;;;;;6.65;3.03;;;23.90;96.00;;;;;;5006521;28;20030;-75
2021/06/24 08:01:56;;;;;;;11.27;3.83;;;23.40;96.50;;;;;;5016939;28;20026;-75
2021/06/24 08:04:22;;;;;;;11.55;3.15;;;23.20;96.80;;;;;;5005434;28;20124;-75
2021/06/24 08:06:47;;;;;;;7.60;3.35;;;23.00;97.60;;;;;;5006369;28;20026;-74
2021/06/24 08:09:14;;;;;;;13.70;4.07;;;23.40;98.10;;;;;;5004866;28;20598;-75
2021/06/24 08:11:41;;;;;;;13.05;3.28;;;23.70;98.10;;;;;;5006745;28;20050;-75
2021/06/24 08:14:06;;;;;;;9.48;3.67;;;24.10;97.60;;;;;;5014926;28;20032;-75
2021/06/24 08:16:32;;;;;;;12.73;4.10;;;24.10;96.40;;;;;;5026089;28;20021;-76
2021/06/24 08:18:58;;;;;;;7.05;2.88;;;24.20;96.80;;;;;;5026177;28;20021;-77
2021/06/24 08:21:24;;;;;;;10.57;3.78;;;24.30;96.30;;;;;;5023492;28;20052;-75
2021/06/24 08:23:50;;;;;;;9.05;3.20;;;24.10;97.70;;;;;;5020640;28;20041;-75
2021/06/24 08:26:16;;;;;;;8.50;3.10;;;24.10;96.80;;;;;;5027987;28;20029;-75
2021/06/24 08:28:42;;;;;;;9.32;3.42;;;24.60;96.60;;;;;;5004697;28;20026;-76
2021/06/24 08:31:07;;;;;;;11.13;3.28;;;24.80;96.10;;;;;;5004700;28;20132;-75
2021/06/24 08:33:33;;;;;;;9.48;3.55;;;24.70;96.20;;;;;;5006136;28;20037;-76
2021/06/24 08:35:59;;;;;;;9.18;4.20;;;24.90;96.00;;;;;;5005950;28;20111;-75
2021/06/24 08:38:25;;;;;;;7.32;2.75;;;24.90;95.80;;;;;;5005930;28;20033;-76
2021/06/24 08:40:51;;;;;;;10.23;3.13;;;25.00;95.50;;;;;;5005932;28;20026;-75
2021/06/24 08:43:17;;;;;;;8.65;3.42;;;25.00;95.40;;;;;;5012855;28;20041;-75
2021/06/24 08:45:43;;;;;;;7.03;2.83;;;25.40;95.90;;;;;;5005997;28;20025;-76
2021/06/24 08:48:15;;;;;;;12.18;3.13;;;25.20;94.70;;;;;;5005821;28;20025;-76
2021/06/24 08:50:46;;;;;;;12.40;3.85;;;25.10;94.30;;;;;;5005732;28;20022;-75
2021/06/24 08:53:12;;;;;;;7.63;3.35;;;25.20;94.60;;;;;;5007653;28;20026;-75
2021/06/24 08:55:43;;;;;;;11.40;3.05;;;25.10;94.60;;;;;;5010940;28;20045;-75
2021/06/24 08:58:09;;;;;;;11.52;3.60;;;25.30;94.70;;;;;;5005452;28;20018;-75
2021/06/24 09:00:35;;;;;;;7.53;3.25;;;25.60;95.80;;;;;;5010578;28;20033;-75
2021/06/24 09:03:28;;;;;;;9.20;3.80;;;25.50;95.60;;;;;;5004742;28;20499;-77
2021/06/24 09:06:05;;;;;;;10.35;3.03;;;25.50;95.10;;;;;;5025503;28;20033;-75
2021/06/24 09:08:37;;;;;;;8.48;3.45;;;25.80;95.50;;;;;;5025117;28;20113;-75
2021/06/24 09:11:20;;;;;;;10.68;3.42;;;25.60;94.80;;;;;;5024990;28;20132;-76
2021/06/24 09:13:58;;;;;;;9.63;3.13;;;25.90;95.60;;;;;;5024981;28;20097;-76
2021/06/24 09:16:27;;;;;;;7.22;3.08;;;26.20;95.20;;;;;;5010840;28;20609;-75
2021/06/24 09:19:12;;;;;;;7.93;3.53;;;26.50;95.10;;;;;;5005264;28;20088;-76
2021/06/24 09:21:37;;;;;;;14.55;3.58;;;26.50;95.00;;;;;;5023315;28;20033;-76
2021/06/24 09:24:22;;;;;;;9.40;3.88;;;26.10;94.90;;;;;;5009994;28;20235;-76
2021/06/24 09:26:48;;;;;;;10.27;3.65;;;26.50;95.50;;;;;;5023600;28;20067;-76
2021/06/24 09:29:15;;;;;;;7.45;3.03;;;26.20;94.30;;;;;;5024929;28;20468;-75
2021/06/24 09:31:43;;;;;;;10.27;4.00;;;26.20;94.50;;;;;;5025038;28;20021;-76
2021/06/24 09:34:11;;;;;;;10.32;3.70;;;26.40;94.50;;;;;;5012944;28;20076;-75
2021/06/24 09:36:48;;;;;;;9.98;2.92;;;26.70;94.40;;;;;;5004933;28;20074;-76
2021/06/24 09:39:24;;;;;;;8.63;3.25;;;26.40;93.80;;;;;;5004917;28;20502;-76
2021/06/24 09:42:04;;;;;;;10.57;3.38;;;26.70;94.20;;;;;;5004957;28;20033;-76
2021/06/24 09:44:31;;;;;;;9.23;4.63;;;26.90;93.70;;;;;;5020070;28;20883;-76
2021/06/24 09:46:58;;;;;;;7.38;3.45;;;27.00;94.80;;;;;;5015216;28;20112;-76
2021/06/24 09:49:34;;;;;;;9.57;3.35;;;27.20;94.30;;;;;;5015942;28;20108;-75
2021/06/24 09:52:02;;;;;;;11.50;4.03;;;27.50;93.70;;;;;;5005195;28;20510;-75
2021/06/24 09:54:34;;;;;;;7.75;3.30;;;27.30;93.40;;;;;;5004722;28;20054;-75
2021/06/24 09:57:03;;;;;;;6.40;3.60;;;27.50;93.40;;;;;;5004996;28;20030;-75
2021/06/24 09:59:34;;;;;;;7.32;2.83;;;27.50;93.90;;;;;;5010709;28;20021;-75
2021/06/24 10:02:09;;;;;;;6.97;3.13;;;27.90;94.20;;;;;;5024683;28;20025;-76
2021/06/24 10:04:38;;;;;;;10.52;3.50;;;27.70;93.30;;;;;;5028941;28;20068;-75
2021/06/24 10:07:08;;;;;;;10.50;4.32;;;27.50;92.90;;;;;;5021185;28;20124;-75
2021/06/24 10:09:34;;;;;;;7.38;3.10;;;27.50;93.80;;;;;;5028572;28;20022;-75
2021/06/24 10:12:00;;;;;;;9.80;2.90;;;27.70;92.70;;;;;;5028512;28;20369;-75
2021/06/24 10:14:28;;;;;;;9.48;3.70;;;27.80;93.00;;;;;;5027270;28;20116;-76
2021/06/24 10:16:56;;;;;;;10.15;3.40;;;28.30;92.90;;;;;;5022815;28;20037;-75
2021/06/24 10:19:34;;;;;;;8.27;3.25;;;28.10;93.60;;;;;;5008864;28;20030;-76
2021/06/24 10:22:29;;;;;;;6.70;2.85;;;27.50;92.80;;;;;;5008294;28;20032;-76
2021/06/24 10:25:07;;;;;;;8.27;3.15;;;28.30;94.30;;;;;;5018312;28;20104;-75
2021/06/24 10:27:36;;;;;;;9.48;3.53;;;28.90;93.20;;;;;;5021436;28;20030;-76
2021/06/24 10:30:11;;;;;;;15.20;4.15;;;28.60;92.70;;;;;;5028278;28;20029;-75
2021/06/24 10:32:38;;;;;;;10.90;4.45;;;28.70;94.10;;;;;;5028399;28;20097;-76
2021/06/24 10:35:07;;;;;;;10.93;4.45;;;28.70;93.90;;;;;;5027626;28;20527;-76
2021/06/24 10:37:33;;;;;;;13.15;3.75;;;28.90;93.40;;;;;;5026736;28;20341;-76
2021/06/24 10:40:13;;;;;;;13.27;3.83;;;29.20;93.40;;;;;;5007903;28;20079;-75
2021/06/24 10:42:54;;;;;;;8.68;3.15;;;28.70;93.00;;;;;;5015118;28;20026;-76
2021/06/24 10:45:20;;;;;;;12.07;3.53;;;29.10;92.90;;;;;;5008044;28;20073;-79
2021/06/24 10:47:46;;;;;;;9.43;3.40;;;29.60;91.20;;;;;;5016138;28;20168;-74
2021/06/24 10:50:37;;;;;;;13.82;3.47;;;29.90;92.10;;;;;;5027862;28;20100;-75
2021/06/24 10:53:02;;;;;;;8.30;3.35;;;29.80;91.00;;;;;;5027418;28;20606;-75
2021/06/24 10:55:31;;;;;;;11.02;3.42;;;30.10;90.30;;;;;;5016270;28;20048;-76
2021/06/24 10:57:57;;;;;;;10.82;3.75;;;30.40;91.60;;;;;;5008066;28;20022;-75
2021/06/24 11:01:01;;;;;;;15.07;4.20;;;30.50;89.50;;;;;;5007248;28;20046;-76
2021/06/24 11:03:30;;;;;;;11.52;4.35;;;30.50;89.90;;;;;;5007634;28;20033;-76
2021/06/24 11:06:07;;;;;;;9.82;4.18;;;30.50;89.10;;;;;;5007624;28;20036;-75
2021/06/24 11:08:33;;;;;;;9.82;3.50;;;30.70;88.40;;;;;;5008049;28;20030;-75
2021/06/24 11:11:01;;;;;;;10.75;3.50;;;30.70;87.90;;;;;;5007673;28;20036;-77
2021/06/24 11:13:39;;;;;;;11.40;4.63;;;30.60;87.30;;;;;;5007328;28;20022;-79
2021/06/24 11:16:10;;;;;;;10.57;3.67;;;30.40;85.40;;;;;;5008959;28;20030;-76
2021/06/24 11:18:36;;;;;;;12.40;3.55;;;30.60;85.60;;;;;;5007715;28;20029;-78
2021/06/24 11:21:07;;;;;;;9.90;3.20;;;30.60;84.70;;;;;;5022976;28;20604;-77
2021/06/24 11:23:52;;;;;;;8.38;3.40;;;30.60;85.40;;;;;;5026593;28;20029;-76
2021/06/24 11:26:27;;;;;;;7.15;3.17;;;30.70;86.10;;;;;;5025849;28;20026;-75
2021/06/24 11:29:01;;;;;;;7.60;3.10;;;30.70;85.80;;;;;;5026103;28;20103;-76
2021/06/24 11:31:33;;;;;;;12.77;4.32;;;30.50;86.00;;;;;;5020523;28;20155;-75
2021/06/24 11:36:57;;;;;;;7.07;2.95;;;31.10;84.40;;;;;;5026455;28;20056;-76
2021/06/24 11:39:28;;;;;;;11.30;2.95;;;31.10;83.10;;;;;;5026049;28;20052;-75
2021/06/24 11:41:57;;;;;;;10.07;3.00;;;30.90;82.90;;;;;;5020215;28;20040;-76
2021/06/24 11:44:25;;;;;;;12.93;3.85;;;30.90;82.30;;;;;;5006039;28;20491;-76
2021/06/24 11:47:11;;;;;;;9.68;3.20;;;31.20;83.00;;;;;;5005811;28;20040;-76
2021/06/24 12:03:50;;;;;;;12.38;3.50;;;31.20;78.40;;;;;;5024875;28;20099;-75
2021/06/24 12:06:16;;;;;;;6.85;3.10;;;31.10;80.20;;;;;;5019866;28;20484;-75
2021/06/24 12:08:42;;;;;;;10.30;2.95;;;31.60;79.40;;;;;;5018472;28;20025;-76
2021/06/24 12:11:12;;;;;;;8.25;2.78;;;31.40;76.50;;;;;;5025205;28;20056;-75
2021/06/24 12:13:41;;;;;;;11.23;2.47;;;31.10;76.10;;;;;;5025092;28;20022;-76
2021/06/24 12:16:11;;;;;;;7.88;2.58;;;31.30;77.40;;;;;;5025103;28;20387;-75
2021/06/24 12:18:42;;;;;;;5.20;1.85;;;31.50;78.70;;;;;;5013684;28;20022;-75
2021/06/24 12:21:13;;;;;;;6.32;2.22;;;31.60;70.50;;;;;;5021321;28;20515;-73
2021/06/24 12:23:48;;;;;;;7.18;2.00;;;31.40;73.70;;;;;;5016901;28;20034;-74
2021/06/24 12:26:16;;;;;;;6.90;2.65;;;31.80;73.20;;;;;;5003597;28;20029;-74
2021/06/24 12:28:43;;;;;;;9.75;2.58;;;31.70;74.40;;;;;;5004982;28;20108;-74
2021/06/24 12:31:23;;;;;;;7.03;1.90;;;31.50;73.60;;;;;;5004817;28;20037;-73
2021/06/24 12:33:50;;;;;;;6.25;1.85;;;31.70;73.40;;;;;;5004747;28;20168;-72
2021/06/24 12:36:31;;;;;;;6.45;2.17;;;31.50;74.50;;;;;;5004529;28;20045;-73
2021/06/24 12:38:57;;;;;;;15.20;3.92;;;31.50;74.50;;;;;;5011209;28;20067;-74
2021/06/24 12:41:22;;;;;;;9.95;2.33;;;31.60;72.90;;;;;;5008348;28;20041;-76
2021/06/24 12:43:48;;;;;;;11.98;2.40;;;31.60;72.80;;;;;;5004619;28;20112;-74
2021/06/24 12:46:14;;;;;;;6.68;1.85;;;31.70;71.80;;;;;;5004501;28;20036;-74
2021/06/24 12:48:42;;;;;;;8.95;2.60;;;31.30;70.90;;;;;;5004832;28;20036;-77
2021/06/24 12:51:17;;;;;;;8.27;1.67;;;31.60;70.60;;;;;;5004878;28;20033;-77
2021/06/24 12:53:45;;;;;;;5.57;1.73;;;31.50;69.80;;;;;;5004842;28;20029;-77
2021/06/24 12:56:31;;;;;;;10.68;2.20;;;31.60;69.70;;;;;;5004742;28;20026;-77
2021/06/24 12:59:14;;;;;;;3.70;1.40;;;31.50;70.80;;;;;;5009281;28;20046;-77
2021/06/24 13:01:42;;;;;;;9.07;2.33;;;31.40;70.70;;;;;;5004387;28;20038;-75
2021/06/24 13:04:12;;;;;;;5.57;1.92;;;31.30;70.70;;;;;;5004161;28;20368;-76
2021/06/24 13:07:03;;;;;;;9.43;1.60;;;31.40;70.00;;;;;;5004439;28;20655;-76